sensor_id;sensor_type;location;lat;lon;timestamp;P1;durP1;ratioP1;P2;durP2;ratioP2
25946;SDS011;13745;51.470;9.894;2023-08-24T00:02:14;9.30;;;5.85;;
25946;SDS011;13745;51.470;9.894;2023-08-24T00:05:01;5.65;;;5.15;;
25946;SDS011;13745;51.470;9.894;2023-08-24T00:07:46;7.25;;;5.85;;
25946;SDS011;13745;51.470;9.894;2023-08-24T00:10:32;6.85;;;5.97;;
25946;SDS011;13745;51.470;9.894;2023-08-24T00:13:17;6.43;;;5.93;;
25946;SDS011;13745;51.470;9.894;2023-08-24T00:16:02;6.60;;;5.70;;
25946;SDS011;13745;51.470;9.894;2023-08-24T00:18:47;6.55;;;5.88;;
25946;SDS011;13745;51.470;9.894;2023-08-24T00:21:34;8.00;;;5.63;;
25946;SDS011;13745;51.470;9.894;2023-08-24T00:24:19;11.02;;;5.95;;
25946;SDS011;13745;51.470;9.894;2023-08-24T00:27:04;6.30;;;5.70;;
25946;SDS011;13745;51.470;9.894;2023-08-24T00:29:50;7.07;;;6.35;;
25946;SDS011;13745;51.470;9.894;2023-08-24T00:32:35;5.82;;;5.35;;
25946;SDS011;13745;51.470;9.894;2023-08-24T00:35:20;9.23;;;5.93;;
25946;SDS011;13745;51.470;9.894;2023-08-24T00:38:07;7.32;;;5.07;;
25946;SDS011;13745;51.470;9.894;2023-08-24T00:40:52;5.85;;;5.25;;
25946;SDS011;13745;51.470;9.894;2023-08-24T00:43:38;5.63;;;5.07;;
25946;SDS011;13745;51.470;9.894;2023-08-24T00:46:23;6.78;;;6.13;;
25946;SDS011;13745;51.470;9.894;2023-08-24T00:49:10;6.20;;;5.63;;
25946;SDS011;13745;51.470;9.894;2023-08-24T00:51:56;6.57;;;5.88;;
25946;SDS011;13745;51.470;9.894;2023-08-24T00:54:42;7.80;;;5.75;;
25946;SDS011;13745;51.470;9.894;2023-08-24T00:57:28;6.15;;;5.55;;
25946;SDS011;13745;51.470;9.894;2023-08-24T01:00:14;6.85;;;5.15;;
25946;SDS011;13745;51.470;9.894;2023-08-24T01:02:59;6.20;;;5.05;;
25946;SDS011;13745;51.470;9.894;2023-08-24T01:05:44;5.38;;;4.97;;
25946;SDS011;13745;51.470;9.894;2023-08-24T01:08:29;6.88;;;5.45;;
25946;SDS011;13745;51.470;9.894;2023-08-24T01:11:19;5.88;;;5.03;;
25946;SDS011;13745;51.470;9.894;2023-08-24T01:14:12;5.63;;;5.13;;
25946;SDS011;13745;51.470;9.894;2023-08-24T01:17:05;6.22;;;5.63;;
25946;SDS011;13745;51.470;9.894;2023-08-24T01:19:55;11.35;;;5.72;;
25946;SDS011;13745;51.470;9.894;2023-08-24T01:22:44;6.90;;;6.25;;
25946;SDS011;13745;51.470;9.894;2023-08-24T01:25:38;6.13;;;5.57;;
25946;SDS011;13745;51.470;9.894;2023-08-24T01:28:31;6.93;;;5.85;;
25946;SDS011;13745;51.470;9.894;2023-08-24T01:31:18;7.07;;;6.47;;
25946;SDS011;13745;51.470;9.894;2023-08-24T01:34:05;6.22;;;5.72;;
25946;SDS011;13745;51.470;9.894;2023-08-24T01:36:50;6.45;;;5.90;;
25946;SDS011;13745;51.470;9.894;2023-08-24T01:39:39;10.50;;;6.43;;
25946;SDS011;13745;51.470;9.894;2023-08-24T01:42:28;7.95;;;6.50;;
25946;SDS011;13745;51.470;9.894;2023-08-24T01:45:17;6.65;;;6.10;;
25946;SDS011;13745;51.470;9.894;2023-08-24T01:48:04;11.25;;;6.60;;
25946;SDS011;13745;51.470;9.894;2023-08-24T01:50:51;7.28;;;6.38;;
25946;SDS011;13745;51.470;9.894;2023-08-24T01:53:38;7.47;;;6.85;;
25946;SDS011;13745;51.470;9.894;2023-08-24T01:56:24;11.93;;;6.78;;
25946;SDS011;13745;51.470;9.894;2023-08-24T01:59:10;7.00;;;6.38;;
25946;SDS011;13745;51.470;9.894;2023-08-24T02:01:56;7.95;;;6.65;;
25946;SDS011;13745;51.470;9.894;2023-08-24T02:04:41;7.55;;;6.95;;
25946;SDS011;13745;51.470;9.894;2023-08-24T02:07:27;8.70;;;7.40;;
25946;SDS011;13745;51.470;9.894;2023-08-24T02:10:12;13.35;;;7.40;;
25946;SDS011;13745;51.470;9.894;2023-08-24T02:12:57;8.20;;;7.40;;
25946;SDS011;13745;51.470;9.894;2023-08-24T02:15:42;10.82;;;6.88;;
25946;SDS011;13745;51.470;9.894;2023-08-24T02:18:29;7.32;;;6.63;;
25946;SDS011;13745;51.470;9.894;2023-08-24T02:21:14;8.48;;;6.55;;
25946;SDS011;13745;51.470;9.894;2023-08-24T02:23:59;8.38;;;7.10;;
25946;SDS011;13745;51.470;9.894;2023-08-24T02:26:44;7.90;;;6.50;;
25946;SDS011;13745;51.470;9.894;2023-08-24T02:29:29;8.93;;;6.97;;
25946;SDS011;13745;51.470;9.894;2023-08-24T02:32:14;7.70;;;6.80;;
25946;SDS011;13745;51.470;9.894;2023-08-24T02:35:01;7.78;;;7.18;;
25946;SDS011;13745;51.470;9.894;2023-08-24T02:37:48;7.28;;;6.57;;
25946;SDS011;13745;51.470;9.894;2023-08-24T02:40:34;6.85;;;6.22;;
25946;SDS011;13745;51.470;9.894;2023-08-24T02:43:19;7.78;;;7.18;;
25946;SDS011;13745;51.470;9.894;2023-08-24T02:46:04;7.38;;;6.78;;
25946;SDS011;13745;51.470;9.894;2023-08-24T02:48:51;10.95;;;7.13;;
25946;SDS011;13745;51.470;9.894;2023-08-24T02:51:37;8.20;;;7.35;;
25946;SDS011;13745;51.470;9.894;2023-08-24T02:54:23;7.75;;;7.15;;
25946;SDS011;13745;51.470;9.894;2023-08-24T02:57:08;8.38;;;6.88;;
25946;SDS011;13745;51.470;9.894;2023-08-24T02:59:53;7.78;;;6.82;;
25946;SDS011;13745;51.470;9.894;2023-08-24T03:02:40;10.77;;;6.80;;
25946;SDS011;13745;51.470;9.894;2023-08-24T03:05:25;11.88;;;6.93;;
25946;SDS011;13745;51.470;9.894;2023-08-24T03:08:12;9.52;;;7.05;;
25946;SDS011;13745;51.470;9.894;2023-08-24T03:10:58;7.55;;;6.90;;
25946;SDS011;13745;51.470;9.894;2023-08-24T03:13:43;8.07;;;7.35;;
25946;SDS011;13745;51.470;9.894;2023-08-24T03:16:29;9.00;;;8.20;;
25946;SDS011;13745;51.470;9.894;2023-08-24T03:19:14;8.43;;;7.72;;
25946;SDS011;13745;51.470;9.894;2023-08-24T03:22:01;10.63;;;7.50;;
25946;SDS011;13745;51.470;9.894;2023-08-24T03:24:48;11.13;;;8.77;;
25946;SDS011;13745;51.470;9.894;2023-08-24T03:27:33;9.48;;;8.57;;
25946;SDS011;13745;51.470;9.894;2023-08-24T03:30:18;18.65;;;8.13;;
25946;SDS011;13745;51.470;9.894;2023-08-24T03:33:03;9.35;;;8.55;;
25946;SDS011;13745;51.470;9.894;2023-08-24T03:35:49;11.70;;;8.23;;
25946;SDS011;13745;51.470;9.894;2023-08-24T03:38:34;9.00;;;8.30;;
25946;SDS011;13745;51.470;9.894;2023-08-24T03:41:21;8.50;;;7.63;;
25946;SDS011;13745;51.470;9.894;2023-08-24T03:44:06;15.75;;;7.68;;
25946;SDS011;13745;51.470;9.894;2023-08-24T03:46:51;8.60;;;7.70;;
25946;SDS011;13745;51.470;9.894;2023-08-24T03:49:36;8.50;;;7.65;;
25946;SDS011;13745;51.470;9.894;2023-08-24T03:52:21;7.80;;;7.20;;
25946;SDS011;13745;51.470;9.894;2023-08-24T03:55:07;9.77;;;7.50;;
25946;SDS011;13745;51.470;9.894;2023-08-24T03:57:55;8.00;;;7.15;;
25946;SDS011;13745;51.470;9.894;2023-08-24T04:00:43;11.50;;;6.60;;
25946;SDS011;13745;51.470;9.894;2023-08-24T04:03:28;7.40;;;6.78;;
25946;SDS011;13745;51.470;9.894;2023-08-24T04:06:13;10.52;;;7.68;;
25946;SDS011;13745;51.470;9.894;2023-08-24T04:09:00;7.70;;;6.93;;
25946;SDS011;13745;51.470;9.894;2023-08-24T04:11:45;7.45;;;6.30;;
25946;SDS011;13745;51.470;9.894;2023-08-24T04:14:34;7.70;;;7.10;;
25946;SDS011;13745;51.470;9.894;2023-08-24T04:17:19;9.35;;;8.43;;
25946;SDS011;13745;51.470;9.894;2023-08-24T04:20:06;8.90;;;8.20;;
25946;SDS011;13745;51.470;9.894;2023-08-24T04:22:52;10.07;;;7.47;;
25946;SDS011;13745;51.470;9.894;2023-08-24T04:25:39;11.45;;;7.22;;
25946;SDS011;13745;51.470;9.894;2023-08-24T04:28:24;9.82;;;8.18;;
25946;SDS011;13745;51.470;9.894;2023-08-24T04:31:11;8.98;;;7.78;;
25946;SDS011;13745;51.470;9.894;2023-08-24T04:33:56;7.97;;;7.28;;
25946;SDS011;13745;51.470;9.894;2023-08-24T04:36:41;8.15;;;7.25;;
25946;SDS011;13745;51.470;9.894;2023-08-24T04:39:27;9.93;;;7.50;;
25946;SDS011;13745;51.470;9.894;2023-08-24T04:42:13;231.93;;;14.07;;
25946;SDS011;13745;51.470;9.894;2023-08-24T04:44:58;9.00;;;7.57;;
25946;SDS011;13745;51.470;9.894;2023-08-24T04:47:44;8.90;;;7.95;;
25946;SDS011;13745;51.470;9.894;2023-08-24T04:50:30;10.68;;;8.18;;
25946;SDS011;13745;51.470;9.894;2023-08-24T04:53:15;8.23;;;7.53;;
25946;SDS011;13745;51.470;9.894;2023-08-24T04:56:01;7.95;;;7.22;;
25946;SDS011;13745;51.470;9.894;2023-08-24T04:58:53;12.10;;;8.68;;
25946;SDS011;13745;51.470;9.894;2023-08-24T05:01:40;8.65;;;7.53;;
25946;SDS011;13745;51.470;9.894;2023-08-24T05:04:27;8.57;;;7.78;;
25946;SDS011;13745;51.470;9.894;2023-08-24T05:07:12;8.77;;;8.00;;
25946;SDS011;13745;51.470;9.894;2023-08-24T05:09:57;11.00;;;8.60;;
25946;SDS011;13745;51.470;9.894;2023-08-24T05:12:42;11.32;;;8.90;;
25946;SDS011;13745;51.470;9.894;2023-08-24T05:15:27;9.07;;;7.18;;
25946;SDS011;13745;51.470;9.894;2023-08-24T05:18:13;10.30;;;8.27;;
25946;SDS011;13745;51.470;9.894;2023-08-24T05:20:59;10.13;;;7.40;;
25946;SDS011;13745;51.470;9.894;2023-08-24T05:23:44;11.05;;;8.80;;
25946;SDS011;13745;51.470;9.894;2023-08-24T05:26:29;9.32;;;8.52;;
25946;SDS011;13745;51.470;9.894;2023-08-24T05:29:15;8.65;;;7.85;;
25946;SDS011;13745;51.470;9.894;2023-08-24T05:32:00;11.25;;;9.23;;
25946;SDS011;13745;51.470;9.894;2023-08-24T05:34:45;11.57;;;9.02;;
25946;SDS011;13745;51.470;9.894;2023-08-24T05:37:32;13.23;;;9.48;;
25946;SDS011;13745;51.470;9.894;2023-08-24T05:40:17;8.73;;;8.00;;
25946;SDS011;13745;51.470;9.894;2023-08-24T05:43:02;12.52;;;8.10;;
25946;SDS011;13745;51.470;9.894;2023-08-24T05:45:48;9.65;;;7.43;;
25946;SDS011;13745;51.470;9.894;2023-08-24T05:48:33;10.82;;;8.52;;
25946;SDS011;13745;51.470;9.894;2023-08-24T05:51:18;12.20;;;8.98;;
25946;SDS011;13745;51.470;9.894;2023-08-24T05:54:05;9.88;;;8.98;;
25946;SDS011;13745;51.470;9.894;2023-08-24T05:56:50;8.85;;;8.13;;
25946;SDS011;13745;51.470;9.894;2023-08-24T05:59:35;8.88;;;7.05;;
25946;SDS011;13745;51.470;9.894;2023-08-24T06:02:20;9.93;;;8.15;;
25946;SDS011;13745;51.470;9.894;2023-08-24T06:05:05;9.73;;;7.93;;
25946;SDS011;13745;51.470;9.894;2023-08-24T06:07:51;8.63;;;7.82;;
25946;SDS011;13745;51.470;9.894;2023-08-24T06:10:38;8.60;;;7.35;;
25946;SDS011;13745;51.470;9.894;2023-08-24T06:13:23;8.63;;;7.50;;
25946;SDS011;13745;51.470;9.894;2023-08-24T06:16:09;9.55;;;7.35;;
25946;SDS011;13745;51.470;9.894;2023-08-24T06:18:54;8.63;;;7.22;;
25946;SDS011;13745;51.470;9.894;2023-08-24T06:21:39;7.65;;;7.05;;
25946;SDS011;13745;51.470;9.894;2023-08-24T06:24:24;10.02;;;7.15;;
25946;SDS011;13745;51.470;9.894;2023-08-24T06:27:10;8.63;;;7.82;;
25946;SDS011;13745;51.470;9.894;2023-08-24T06:29:55;8.68;;;7.93;;
25946;SDS011;13745;51.470;9.894;2023-08-24T06:32:41;10.32;;;7.68;;
25946;SDS011;13745;51.470;9.894;2023-08-24T06:35:26;9.93;;;7.63;;
25946;SDS011;13745;51.470;9.894;2023-08-24T06:38:11;8.85;;;7.30;;
25946;SDS011;13745;51.470;9.894;2023-08-24T06:40:57;17.67;;;7.18;;
25946;SDS011;13745;51.470;9.894;2023-08-24T06:43:43;7.85;;;7.03;;
25946;SDS011;13745;51.470;9.894;2023-08-24T06:46:28;7.72;;;6.97;;
25946;SDS011;13745;51.470;9.894;2023-08-24T06:49:14;8.32;;;7.43;;
25946;SDS011;13745;51.470;9.894;2023-08-24T06:51:59;12.63;;;7.22;;
25946;SDS011;13745;51.470;9.894;2023-08-24T06:54:44;13.90;;;7.78;;
25946;SDS011;13745;51.470;9.894;2023-08-24T06:57:29;10.23;;;7.40;;
25946;SDS011;13745;51.470;9.894;2023-08-24T07:00:16;19.88;;;9.13;;
25946;SDS011;13745;51.470;9.894;2023-08-24T07:03:03;15.55;;;8.27;;
25946;SDS011;13745;51.470;9.894;2023-08-24T07:05:49;9.43;;;8.63;;
25946;SDS011;13745;51.470;9.894;2023-08-24T07:08:34;9.30;;;8.40;;
25946;SDS011;13745;51.470;9.894;2023-08-24T07:11:20;9.18;;;8.27;;
25946;SDS011;13745;51.470;9.894;2023-08-24T07:14:05;11.95;;;8.00;;
25946;SDS011;13745;51.470;9.894;2023-08-24T07:16:52;17.92;;;8.23;;
25946;SDS011;13745;51.470;9.894;2023-08-24T07:19:37;9.80;;;8.27;;
25946;SDS011;13745;51.470;9.894;2023-08-24T07:22:22;11.18;;;9.00;;
25946;SDS011;13745;51.470;9.894;2023-08-24T07:25:07;9.20;;;8.32;;
25946;SDS011;13745;51.470;9.894;2023-08-24T07:27:55;9.27;;;8.30;;
25946;SDS011;13745;51.470;9.894;2023-08-24T07:30:42;13.93;;;8.88;;
25946;SDS011;13745;51.470;9.894;2023-08-24T07:33:28;9.07;;;7.93;;
25946;SDS011;13745;51.470;9.894;2023-08-24T07:36:13;11.57;;;8.60;;
25946;SDS011;13745;51.470;9.894;2023-08-24T07:38:59;14.25;;;8.95;;
25946;SDS011;13745;51.470;9.894;2023-08-24T07:41:44;10.45;;;8.65;;
25946;SDS011;13745;51.470;9.894;2023-08-24T07:44:30;9.15;;;7.57;;
25946;SDS011;13745;51.470;9.894;2023-08-24T07:47:15;12.15;;;7.00;;
25946;SDS011;13745;51.470;9.894;2023-08-24T07:50:02;24.10;;;7.28;;
25946;SDS011;13745;51.470;9.894;2023-08-24T07:52:47;12.98;;;8.02;;
25946;SDS011;13745;51.470;9.894;2023-08-24T07:55:33;12.95;;;8.15;;
25946;SDS011;13745;51.470;9.894;2023-08-24T07:58:18;7.85;;;7.15;;
25946;SDS011;13745;51.470;9.894;2023-08-24T08:01:03;8.40;;;7.20;;
25946;SDS011;13745;51.470;9.894;2023-08-24T08:03:48;9.30;;;6.55;;
25946;SDS011;13745;51.470;9.894;2023-08-24T08:06:35;7.47;;;6.78;;
25946;SDS011;13745;51.470;9.894;2023-08-24T08:09:20;8.43;;;6.75;;
25946;SDS011;13745;51.470;9.894;2023-08-24T08:12:05;9.65;;;7.00;;
25946;SDS011;13745;51.470;9.894;2023-08-24T08:14:51;10.18;;;6.90;;
25946;SDS011;13745;51.470;9.894;2023-08-24T08:17:36;7.28;;;6.57;;
25946;SDS011;13745;51.470;9.894;2023-08-24T08:20:21;7.40;;;6.80;;
25946;SDS011;13745;51.470;9.894;2023-08-24T08:23:07;7.68;;;6.78;;
25946;SDS011;13745;51.470;9.894;2023-08-24T08:25:53;8.02;;;6.15;;
25946;SDS011;13745;51.470;9.894;2023-08-24T08:28:38;15.65;;;6.32;;
25946;SDS011;13745;51.470;9.894;2023-08-24T08:31:23;11.65;;;6.63;;
25946;SDS011;13745;51.470;9.894;2023-08-24T08:34:08;6.75;;;5.88;;
25946;SDS011;13745;51.470;9.894;2023-08-24T08:36:53;7.22;;;6.63;;
25946;SDS011;13745;51.470;9.894;2023-08-24T08:39:39;10.45;;;7.00;;
25946;SDS011;13745;51.470;9.894;2023-08-24T08:42:25;17.55;;;7.18;;
25946;SDS011;13745;51.470;9.894;2023-08-24T08:45:10;9.98;;;6.68;;
25946;SDS011;13745;51.470;9.894;2023-08-24T08:47:56;8.65;;;6.45;;
25946;SDS011;13745;51.470;9.894;2023-08-24T08:50:42;8.48;;;7.15;;
25946;SDS011;13745;51.470;9.894;2023-08-24T08:53:27;6.35;;;5.68;;
25946;SDS011;13745;51.470;9.894;2023-08-24T08:56:14;10.70;;;6.03;;
25946;SDS011;13745;51.470;9.894;2023-08-24T08:59:00;11.60;;;5.72;;
25946;SDS011;13745;51.470;9.894;2023-08-24T09:01:49;6.85;;;6.15;;
25946;SDS011;13745;51.470;9.894;2023-08-24T09:04:35;6.50;;;5.90;;
25946;SDS011;13745;51.470;9.894;2023-08-24T09:07:20;10.02;;;6.03;;
25946;SDS011;13745;51.470;9.894;2023-08-24T09:10:06;7.28;;;5.90;;
25946;SDS011;13745;51.470;9.894;2023-08-24T09:12:54;7.90;;;5.25;;
25946;SDS011;13745;51.470;9.894;2023-08-24T09:15:39;7.88;;;5.10;;
25946;SDS011;13745;51.470;9.894;2023-08-24T09:18:32;5.78;;;5.18;;
25946;SDS011;13745;51.470;9.894;2023-08-24T09:21:19;7.68;;;5.22;;
25946;SDS011;13745;51.470;9.894;2023-08-24T09:24:05;7.05;;;4.60;;
25946;SDS011;13745;51.470;9.894;2023-08-24T09:26:51;10.60;;;5.07;;
25946;SDS011;13745;51.470;9.894;2023-08-24T09:29:37;5.82;;;5.13;;
25946;SDS011;13745;51.470;9.894;2023-08-24T09:32:23;7.00;;;5.13;;
25946;SDS011;13745;51.470;9.894;2023-08-24T09:35:09;9.65;;;4.78;;
25946;SDS011;13745;51.470;9.894;2023-08-24T09:37:55;6.55;;;4.93;;
25946;SDS011;13745;51.470;9.894;2023-08-24T09:40:40;12.38;;;5.00;;
25946;SDS011;13745;51.470;9.894;2023-08-24T09:43:31;7.50;;;4.82;;
25946;SDS011;13745;51.470;9.894;2023-08-24T09:46:19;11.02;;;4.15;;
25946;SDS011;13745;51.470;9.894;2023-08-24T09:49:07;8.02;;;5.13;;
25946;SDS011;13745;51.470;9.894;2023-08-24T09:51:53;5.50;;;4.03;;
25946;SDS011;13745;51.470;9.894;2023-08-24T09:54:41;4.22;;;3.83;;
25946;SDS011;13745;51.470;9.894;2023-08-24T09:57:28;4.78;;;4.30;;
25946;SDS011;13745;51.470;9.894;2023-08-24T10:00:13;7.55;;;4.00;;
25946;SDS011;13745;51.470;9.894;2023-08-24T10:03:02;4.50;;;3.78;;
25946;SDS011;13745;51.470;9.894;2023-08-24T10:05:50;4.30;;;3.90;;
25946;SDS011;13745;51.470;9.894;2023-08-24T10:08:37;4.22;;;3.08;;
25946;SDS011;13745;51.470;9.894;2023-08-24T10:11:28;5.95;;;3.10;;
25946;SDS011;13745;51.470;9.894;2023-08-24T10:14:15;4.90;;;3.15;;
25946;SDS011;13745;51.470;9.894;2023-08-24T10:17:05;6.47;;;4.00;;
25946;SDS011;13745;51.470;9.894;2023-08-24T10:19:53;7.32;;;3.72;;
25946;SDS011;13745;51.470;9.894;2023-08-24T10:22:45;5.65;;;3.13;;
25946;SDS011;13745;51.470;9.894;2023-08-24T10:25:32;15.02;;;4.07;;
25946;SDS011;13745;51.470;9.894;2023-08-24T10:28:17;5.05;;;3.03;;
25946;SDS011;13745;51.470;9.894;2023-08-24T10:31:03;4.18;;;2.95;;
25946;SDS011;13745;51.470;9.894;2023-08-24T10:33:48;5.72;;;2.72;;
25946;SDS011;13745;51.470;9.894;2023-08-24T10:36:38;4.75;;;2.90;;
25946;SDS011;13745;51.470;9.894;2023-08-24T10:39:27;5.57;;;3.05;;
25946;SDS011;13745;51.470;9.894;2023-08-24T10:42:13;5.45;;;3.30;;
25946;SDS011;13745;51.470;9.894;2023-08-24T10:44:59;5.95;;;3.20;;
25946;SDS011;13745;51.470;9.894;2023-08-24T10:47:46;3.85;;;2.75;;
25946;SDS011;13745;51.470;9.894;2023-08-24T10:50:31;7.47;;;3.60;;
25946;SDS011;13745;51.470;9.894;2023-08-24T10:56:13;5.68;;;3.28;;
25946;SDS011;13745;51.470;9.894;2023-08-24T10:59:12;7.18;;;3.78;;
25946;SDS011;13745;51.470;9.894;2023-08-24T11:01:58;7.30;;;3.08;;
25946;SDS011;13745;51.470;9.894;2023-08-24T11:07:51;3.50;;;2.85;;
25946;SDS011;13745;51.470;9.894;2023-08-24T11:10:44;4.38;;;3.05;;
25946;SDS011;13745;51.470;9.894;2023-08-24T11:13:32;4.53;;;2.95;;
25946;SDS011;13745;51.470;9.894;2023-08-24T11:19:23;5.70;;;2.72;;
25946;SDS011;13745;51.470;9.894;2023-08-24T11:22:09;4.85;;;2.67;;
25946;SDS011;13745;51.470;9.894;2023-08-24T11:24:55;6.32;;;3.22;;
25946;SDS011;13745;51.470;9.894;2023-08-24T11:27:40;6.18;;;2.42;;
25946;SDS011;13745;51.470;9.894;2023-08-24T11:30:28;5.32;;;2.63;;
25946;SDS011;13745;51.470;9.894;2023-08-24T11:33:14;3.65;;;2.63;;
25946;SDS011;13745;51.470;9.894;2023-08-24T11:36:00;5.78;;;2.25;;
25946;SDS011;13745;51.470;9.894;2023-08-24T11:38:47;6.55;;;2.42;;
25946;SDS011;13745;51.470;9.894;2023-08-24T11:41:32;4.22;;;2.78;;
25946;SDS011;13745;51.470;9.894;2023-08-24T11:44:17;4.32;;;2.53;;
25946;SDS011;13745;51.470;9.894;2023-08-24T11:47:03;5.80;;;2.63;;
25946;SDS011;13745;51.470;9.894;2023-08-24T11:49:49;5.10;;;2.53;;
25946;SDS011;13745;51.470;9.894;2023-08-24T11:52:38;3.83;;;2.33;;
25946;SDS011;13745;51.470;9.894;2023-08-24T11:55:24;4.05;;;2.35;;
25946;SDS011;13745;51.470;9.894;2023-08-24T11:58:15;5.95;;;2.58;;
25946;SDS011;13745;51.470;9.894;2023-08-24T12:01:00;3.95;;;2.17;;
25946;SDS011;13745;51.470;9.894;2023-08-24T12:03:48;2.85;;;2.00;;
25946;SDS011;13745;51.470;9.894;2023-08-24T12:06:33;3.80;;;1.92;;
25946;SDS011;13745;51.470;9.894;2023-08-24T12:09:19;4.05;;;1.60;;
25946;SDS011;13745;51.470;9.894;2023-08-24T12:12:04;3.38;;;1.92;;
25946;SDS011;13745;51.470;9.894;2023-08-24T12:14:50;4.25;;;2.35;;
25946;SDS011;13745;51.470;9.894;2023-08-24T12:17:42;3.30;;;2.10;;
25946;SDS011;13745;51.470;9.894;2023-08-24T12:23:14;4.20;;;1.67;;
25946;SDS011;13745;51.470;9.894;2023-08-24T12:25:59;5.57;;;1.70;;
25946;SDS011;13745;51.470;9.894;2023-08-24T12:28:48;4.00;;;2.05;;
25946;SDS011;13745;51.470;9.894;2023-08-24T12:31:35;6.07;;;1.98;;
25946;SDS011;13745;51.470;9.894;2023-08-24T12:34:21;4.45;;;2.33;;
25946;SDS011;13745;51.470;9.894;2023-08-24T12:37:08;3.65;;;1.80;;
25946;SDS011;13745;51.470;9.894;2023-08-24T12:39:53;4.13;;;1.85;;
25946;SDS011;13745;51.470;9.894;2023-08-24T12:42:39;4.45;;;2.08;;
25946;SDS011;13745;51.470;9.894;2023-08-24T12:45:24;5.22;;;2.28;;
25946;SDS011;13745;51.470;9.894;2023-08-24T12:48:09;2.55;;;1.63;;
25946;SDS011;13745;51.470;9.894;2023-08-24T12:50:55;4.20;;;2.00;;
25946;SDS011;13745;51.470;9.894;2023-08-24T12:53:41;3.20;;;2.25;;
25946;SDS011;13745;51.470;9.894;2023-08-24T12:56:26;4.07;;;1.80;;
25946;SDS011;13745;51.470;9.894;2023-08-24T12:59:11;2.45;;;1.85;;
25946;SDS011;13745;51.470;9.894;2023-08-24T13:01:56;6.63;;;2.17;;
25946;SDS011;13745;51.470;9.894;2023-08-24T13:04:41;3.40;;;1.83;;
25946;SDS011;13745;51.470;9.894;2023-08-24T13:07:27;4.20;;;1.92;;
25946;SDS011;13745;51.470;9.894;2023-08-24T13:10:13;4.30;;;2.10;;
25946;SDS011;13745;51.470;9.894;2023-08-24T13:12:58;6.55;;;2.47;;
25946;SDS011;13745;51.470;9.894;2023-08-24T13:15:44;4.35;;;2.13;;
25946;SDS011;13745;51.470;9.894;2023-08-24T13:18:29;3.50;;;1.73;;
25946;SDS011;13745;51.470;9.894;2023-08-24T13:21:14;2.80;;;1.50;;
25946;SDS011;13745;51.470;9.894;2023-08-24T13:23:59;3.78;;;2.10;;
25946;SDS011;13745;51.470;9.894;2023-08-24T13:26:45;4.00;;;1.60;;
25946;SDS011;13745;51.470;9.894;2023-08-24T13:29:31;2.08;;;1.80;;
25946;SDS011;13745;51.470;9.894;2023-08-24T13:32:16;5.10;;;1.70;;
25946;SDS011;13745;51.470;9.894;2023-08-24T13:35:02;3.42;;;1.80;;
25946;SDS011;13745;51.470;9.894;2023-08-24T13:37:48;3.92;;;1.88;;
25946;SDS011;13745;51.470;9.894;2023-08-24T13:40:34;4.43;;;1.70;;
25946;SDS011;13745;51.470;9.894;2023-08-24T13:43:21;4.85;;;1.70;;
25946;SDS011;13745;51.470;9.894;2023-08-24T13:46:07;5.38;;;1.77;;
25946;SDS011;13745;51.470;9.894;2023-08-24T13:48:52;2.75;;;1.65;;
25946;SDS011;13745;51.470;9.894;2023-08-24T13:51:37;4.53;;;1.67;;
25946;SDS011;13745;51.470;9.894;2023-08-24T13:54:22;4.13;;;1.77;;
25946;SDS011;13745;51.470;9.894;2023-08-24T13:57:09;4.65;;;1.73;;
25946;SDS011;13745;51.470;9.894;2023-08-24T13:59:56;3.15;;;1.75;;
25946;SDS011;13745;51.470;9.894;2023-08-24T14:02:41;2.03;;;1.63;;
25946;SDS011;13745;51.470;9.894;2023-08-24T14:05:26;2.65;;;1.58;;
25946;SDS011;13745;51.470;9.894;2023-08-24T14:08:11;2.72;;;1.80;;
25946;SDS011;13745;51.470;9.894;2023-08-24T14:10:57;2.38;;;1.42;;
25946;SDS011;13745;51.470;9.894;2023-08-24T14:13:42;5.13;;;1.65;;
25946;SDS011;13745;51.470;9.894;2023-08-24T14:16:29;2.58;;;1.63;;
25946;SDS011;13745;51.470;9.894;2023-08-24T14:19:14;3.20;;;1.63;;
25946;SDS011;13745;51.470;9.894;2023-08-24T14:21:59;2.88;;;1.35;;
25946;SDS011;13745;51.470;9.894;2023-08-24T14:24:44;6.50;;;1.88;;
25946;SDS011;13745;51.470;9.894;2023-08-24T14:27:29;3.10;;;1.80;;
25946;SDS011;13745;51.470;9.894;2023-08-24T14:30:14;2.03;;;1.63;;
25946;SDS011;13745;51.470;9.894;2023-08-24T14:33:00;3.55;;;1.45;;
25946;SDS011;13745;51.470;9.894;2023-08-24T14:35:49;2.63;;;1.50;;
25946;SDS011;13745;51.470;9.894;2023-08-24T14:38:35;2.53;;;1.40;;
25946;SDS011;13745;51.470;9.894;2023-08-24T14:41:20;3.70;;;1.48;;
25946;SDS011;13745;51.470;9.894;2023-08-24T14:44:05;2.17;;;1.50;;
25946;SDS011;13745;51.470;9.894;2023-08-24T14:46:51;2.92;;;1.33;;
25946;SDS011;13745;51.470;9.894;2023-08-24T14:49:38;3.05;;;1.90;;
25946;SDS011;13745;51.470;9.894;2023-08-24T14:52:23;4.57;;;1.85;;
25946;SDS011;13745;51.470;9.894;2023-08-24T14:55:08;5.03;;;1.73;;
25946;SDS011;13745;51.470;9.894;2023-08-24T14:57:54;3.40;;;1.70;;
25946;SDS011;13745;51.470;9.894;2023-08-24T15:00:40;3.35;;;1.55;;
25946;SDS011;13745;51.470;9.894;2023-08-24T15:03:25;4.20;;;1.60;;
25946;SDS011;13745;51.470;9.894;2023-08-24T15:06:12;2.10;;;1.50;;
25946;SDS011;13745;51.470;9.894;2023-08-24T15:08:57;2.53;;;1.63;;
25946;SDS011;13745;51.470;9.894;2023-08-24T15:11:43;3.13;;;1.67;;
25946;SDS011;13745;51.470;9.894;2023-08-24T15:14:30;3.80;;;1.63;;
25946;SDS011;13745;51.470;9.894;2023-08-24T15:17:16;4.88;;;1.70;;
25946;SDS011;13745;51.470;9.894;2023-08-24T15:20:01;3.80;;;1.60;;
25946;SDS011;13745;51.470;9.894;2023-08-24T15:22:50;5.25;;;1.67;;
25946;SDS011;13745;51.470;9.894;2023-08-24T15:25:35;4.97;;;1.77;;
25946;SDS011;13745;51.470;9.894;2023-08-24T15:28:20;4.25;;;1.65;;
25946;SDS011;13745;51.470;9.894;2023-08-24T15:31:06;3.15;;;1.98;;
25946;SDS011;13745;51.470;9.894;2023-08-24T15:33:50;2.13;;;1.55;;
25946;SDS011;13745;51.470;9.894;2023-08-24T15:36:36;2.53;;;1.40;;
25946;SDS011;13745;51.470;9.894;2023-08-24T15:39:22;2.13;;;1.60;;
25946;SDS011;13745;51.470;9.894;2023-08-24T15:42:08;1.63;;;1.42;;
25946;SDS011;13745;51.470;9.894;2023-08-24T15:44:53;2.38;;;1.90;;
25946;SDS011;13745;51.470;9.894;2023-08-24T15:47:39;5.00;;;1.88;;
25946;SDS011;13745;51.470;9.894;2023-08-24T15:50:24;3.63;;;2.08;;
25946;SDS011;13745;51.470;9.894;2023-08-24T15:53:10;4.15;;;1.88;;
25946;SDS011;13745;51.470;9.894;2023-08-24T15:55:57;5.15;;;2.15;;
25946;SDS011;13745;51.470;9.894;2023-08-24T15:58:42;2.45;;;1.58;;
25946;SDS011;13745;51.470;9.894;2023-08-24T16:01:27;2.35;;;1.65;;
25946;SDS011;13745;51.470;9.894;2023-08-24T16:04:12;3.10;;;2.00;;
25946;SDS011;13745;51.470;9.894;2023-08-24T16:06:59;7.90;;;2.00;;
25946;SDS011;13745;51.470;9.894;2023-08-24T16:09:44;2.30;;;1.77;;
25946;SDS011;13745;51.470;9.894;2023-08-24T16:12:30;4.63;;;2.10;;
25946;SDS011;13745;51.470;9.894;2023-08-24T16:15:16;3.08;;;1.98;;
25946;SDS011;13745;51.470;9.894;2023-08-24T16:18:01;4.07;;;1.98;;
25946;SDS011;13745;51.470;9.894;2023-08-24T16:20:47;5.15;;;1.75;;
25946;SDS011;13745;51.470;9.894;2023-08-24T16:23:32;3.42;;;2.00;;
25946;SDS011;13745;51.470;9.894;2023-08-24T16:26:17;3.97;;;1.90;;
25946;SDS011;13745;51.470;9.894;2023-08-24T16:29:04;5.03;;;1.77;;
25946;SDS011;13745;51.470;9.894;2023-08-24T16:31:49;4.97;;;1.52;;
25946;SDS011;13745;51.470;9.894;2023-08-24T16:34:34;7.28;;;2.35;;
25946;SDS011;13745;51.470;9.894;2023-08-24T16:37:19;9.45;;;2.17;;
25946;SDS011;13745;51.470;9.894;2023-08-24T16:40:05;4.00;;;2.05;;
25946;SDS011;13745;51.470;9.894;2023-08-24T16:42:51;4.53;;;2.00;;
25946;SDS011;13745;51.470;9.894;2023-08-24T16:45:38;6.07;;;2.70;;
25946;SDS011;13745;51.470;9.894;2023-08-24T16:48:24;9.05;;;1.98;;
25946;SDS011;13745;51.470;9.894;2023-08-24T16:51:09;2.53;;;2.05;;